createdAt,value
2023-05-14T00:00:58.853Z,80.22
2023-05-14T00:03:25.447Z,80.91
2023-05-14T00:05:52.178Z,81.47
2023-05-14T00:08:18.588Z,81.12
2023-05-14T00:10:45.047Z,81.01
2023-05-14T00:13:11.461Z,81.05
2023-05-14T00:15:38.015Z,81.79
2023-05-14T00:18:04.655Z,81.32
2023-05-14T00:20:31.137Z,81.70
2023-05-14T00:22:57.536Z,83.23
2023-05-14T00:25:24.046Z,82.64
2023-05-14T00:27:50.526Z,83.20
2023-05-14T00:30:16.995Z,83.86
2023-05-14T00:32:43.394Z,83.65
2023-05-14T00:35:09.827Z,83.06
2023-05-14T00:37:37.208Z,84.05
2023-05-14T00:40:04.059Z,82.94
2023-05-14T00:42:30.445Z,83.71
2023-05-14T00:44:56.814Z,83.27
2023-05-14T00:47:23.466Z,83.75
2023-05-14T00:49:50.050Z,84.01
2023-05-14T00:52:17.808Z,84.39
2023-05-14T00:54:47.033Z,83.72
2023-05-14T00:57:13.734Z,84.14
2023-05-14T00:59:41.802Z,84.28
2023-05-14T01:02:08.283Z,84.63
2023-05-14T01:04:35.241Z,84.88
2023-05-14T01:07:18.855Z,83.61
2023-05-14T01:10:08.395Z,83.69
2023-05-14T01:13:13.818Z,84.70
2023-05-14T01:15:41.771Z,85.21
2023-05-14T01:18:10.487Z,85.59
2023-05-14T01:20:37.149Z,85.14
2023-05-14T01:23:03.697Z,86.01
2023-05-14T01:25:31.341Z,85.24
2023-05-14T01:28:11.985Z,86.37
2023-05-14T01:30:49.246Z,85.88
2023-05-14T01:33:18.244Z,85.51
2023-05-14T01:35:45.322Z,85.27
2023-05-14T01:38:13.968Z,86.17
2023-05-14T01:40:41.762Z,86.29
2023-05-14T01:43:08.708Z,86.97
2023-05-14T01:45:36.184Z,86.30
2023-05-14T01:48:04.131Z,87.00
2023-05-14T01:50:30.717Z,86.40
2023-05-14T01:52:57.160Z,87.49
2023-05-14T01:55:24.456Z,87.28
2023-05-14T01:57:51.621Z,87.30
2023-05-14T02:00:18.551Z,86.58
2023-05-14T02:02:45.008Z,86.62
2023-05-14T02:05:12.653Z,86.49
2023-05-14T02:07:39.182Z,87.17
2023-05-14T02:10:06.316Z,87.27
2023-05-14T02:12:32.793Z,86.86
2023-05-14T02:14:59.189Z,87.65
2023-05-14T02:17:26.430Z,87.45
2023-05-14T02:19:53.135Z,87.76
2023-05-14T02:22:19.517Z,86.71
2023-05-14T02:24:45.899Z,87.37
2023-05-14T02:27:13.297Z,87.04
2023-05-14T02:29:39.686Z,87.29
2023-05-14T02:32:06.419Z,86.88
2023-05-14T02:34:34.409Z,87.78
2023-05-14T02:37:01.053Z,87.04
2023-05-14T02:39:27.591Z,87.84
2023-05-14T02:41:53.974Z,87.23
2023-05-14T02:44:20.449Z,87.39
2023-05-14T02:46:47.665Z,88.38
2023-05-14T02:49:14.047Z,88.56
2023-05-14T02:51:40.519Z,88.37
2023-05-14T02:54:07.256Z,88.12
2023-05-14T02:56:33.627Z,88.70
2023-05-14T02:59:00.463Z,89.01
2023-05-14T03:01:27.324Z,88.94
2023-05-14T03:03:54.195Z,89.96
2023-05-14T03:06:20.554Z,90.09
2023-05-14T03:08:46.983Z,89.20
2023-05-14T03:11:13.427Z,88.44
2023-05-14T03:13:39.781Z,88.67
2023-05-14T03:16:06.510Z,89.18
2023-05-14T03:18:34.623Z,88.73
2023-05-14T03:21:01.126Z,90.19
2023-05-14T03:23:27.816Z,89.78
2023-05-14T03:25:54.256Z,90.82
2023-05-14T03:28:20.674Z,89.78
2023-05-14T03:30:47.069Z,90.46
2023-05-14T03:33:13.892Z,91.09
2023-05-14T03:35:40.335Z,89.95
2023-05-14T03:38:07.479Z,90.67
2023-05-14T03:40:34.002Z,89.80
2023-05-14T03:43:00.666Z,89.89
2023-05-14T03:45:28.688Z,91.64
2023-05-14T03:47:55.131Z,91.28
2023-05-14T03:50:21.850Z,90.89
2023-05-14T03:52:48.364Z,91.46
2023-05-14T03:55:14.786Z,91.14
2023-05-14T03:57:41.442Z,90.16
2023-05-14T04:00:08.692Z,90.62
2023-05-14T04:02:35.262Z,90.58
2023-05-14T04:05:01.757Z,91.36
2023-05-14T04:07:28.188Z,92.10
2023-05-14T04:09:54.609Z,91.23
2023-05-14T04:12:21.062Z,91.99
2023-05-14T04:14:47.519Z,91.72
2023-05-14T04:17:13.908Z,92.77
2023-05-14T04:19:40.477Z,91.36
2023-05-14T04:22:06.854Z,90.95
2023-05-14T04:24:33.307Z,91.49
2023-05-14T04:27:00.063Z,91.25
2023-05-14T04:29:26.561Z,91.39
2023-05-14T04:31:53.596Z,91.41
2023-05-14T04:34:20.224Z,92.35
2023-05-14T04:36:46.624Z,91.61
2023-05-14T04:39:13.078Z,91.47
2023-05-14T04:41:39.501Z,92.06
2023-05-14T04:44:05.902Z,91.96
2023-05-14T04:46:32.405Z,91.37
2023-05-14T04:48:58.817Z,91.78
2023-05-14T04:51:26.291Z,91.27
2023-05-14T04:53:52.694Z,90.40
2023-05-14T04:56:19.043Z,90.07
2023-05-14T04:58:45.508Z,90.91
2023-05-14T05:01:12.144Z,90.29
2023-05-14T05:03:38.679Z,91.35
2023-05-14T05:06:05.240Z,90.58
2023-05-14T05:08:31.646Z,91.16
2023-05-14T05:10:58.130Z,91.38
2023-05-14T05:13:24.537Z,91.11
2023-05-14T05:15:51.100Z,90.31
2023-05-14T05:18:17.609Z,89.93
2023-05-14T05:20:44.113Z,90.61
2023-05-14T05:23:10.505Z,89.73
2023-05-14T05:25:36.854Z,90.56
2023-05-14T05:28:03.269Z,90.26
2023-05-14T05:30:30.244Z,90.86
2023-05-14T05:32:57.602Z,90.62
2023-05-14T05:35:24.444Z,89.92
2023-05-14T05:37:50.971Z,90.01
2023-05-14T05:40:17.578Z,89.08
2023-05-14T05:42:43.937Z,89.90
2023-05-14T05:45:10.591Z,89.02
2023-05-14T05:47:37.158Z,90.37
2023-05-14T05:50:03.857Z,89.42
2023-05-14T05:52:30.413Z,89.85
2023-05-14T05:54:56.791Z,90.19
2023-05-14T05:57:25.626Z,90.45
2023-05-14T05:59:53.113Z,91.07
2023-05-14T06:02:19.995Z,90.39
2023-05-14T06:04:46.781Z,91.60
2023-05-14T06:07:13.204Z,90.26
2023-05-14T06:09:39.579Z,90.25
2023-05-14T06:12:06.426Z,90.12
2023-05-14T06:14:32.853Z,89.55
2023-05-14T06:16:59.294Z,90.37
2023-05-14T06:19:25.683Z,91.44
2023-05-14T06:21:52.047Z,90.66
2023-05-14T06:24:20.046Z,90.89
2023-05-14T06:26:46.529Z,90.36
2023-05-14T06:29:12.975Z,90.49
2023-05-14T06:31:39.456Z,90.08
2023-05-14T06:34:05.957Z,89.08
2023-05-14T06:36:32.378Z,89.26
2023-05-14T06:38:58.856Z,89.48
2023-05-14T06:41:26.125Z,88.73
2023-05-14T06:43:52.587Z,90.83
2023-05-14T06:46:18.952Z,88.98
2023-05-14T06:48:45.722Z,88.78
2023-05-14T06:51:13.243Z,87.84
2023-05-14T06:53:40.607Z,85.84
2023-05-14T06:56:07.029Z,87.58
2023-05-14T06:58:33.447Z,85.85
2023-05-14T07:01:00.120Z,86.01
2023-05-14T07:03:26.685Z,83.70
2023-05-14T07:05:53.113Z,83.08
2023-05-14T07:08:19.482Z,84.51
2023-05-14T07:10:45.841Z,85.46
2023-05-14T07:13:12.215Z,85.06
2023-05-14T07:15:38.633Z,84.06
2023-05-14T07:18:05.242Z,85.38
2023-05-14T07:20:31.651Z,83.03
2023-05-14T07:22:58.066Z,83.15
2023-05-14T07:25:24.479Z,82.92
2023-05-14T07:27:50.886Z,83.26
2023-05-14T07:30:17.474Z,82.06
2023-05-14T07:32:44.165Z,81.80
2023-05-14T07:35:11.703Z,83.03
2023-05-14T07:37:38.574Z,81.26
2023-05-14T07:40:05.493Z,81.82
2023-05-14T07:42:36.603Z,82.06
2023-05-14T07:45:04.741Z,82.37
2023-05-14T07:47:31.209Z,82.94
2023-05-14T07:49:57.949Z,82.16
2023-05-14T07:52:24.925Z,83.03
2023-05-14T07:54:51.908Z,83.39
2023-05-14T07:57:19.716Z,82.94
2023-05-14T07:59:46.765Z,82.66
2023-05-14T08:02:14.028Z,82.79
2023-05-14T08:04:40.493Z,81.43
2023-05-14T08:07:08.456Z,80.32
2023-05-14T08:09:34.881Z,80.18
2023-05-14T08:12:01.436Z,79.48
2023-05-14T08:14:28.637Z,80.95
2023-05-14T08:16:55.061Z,81.64
2023-05-14T08:19:21.605Z,80.66
2023-05-14T08:21:48.029Z,80.31
2023-05-14T08:24:14.989Z,80.29
2023-05-14T08:26:41.923Z,80.38
2023-05-14T08:29:10.488Z,79.36
2023-05-14T08:31:37.429Z,80.19
2023-05-14T08:34:03.878Z,79.73
2023-05-14T08:36:30.325Z,78.28
2023-05-14T08:38:56.858Z,76.85
2023-05-14T08:41:23.345Z,78.59
2023-05-14T08:44:18.546Z,78.06
2023-05-14T08:46:45.660Z,78.52
2023-05-14T08:49:37.485Z,78.85
2023-05-14T08:52:04.271Z,78.54
2023-05-14T08:54:32.493Z,78.71
2023-05-14T08:56:59.539Z,75.49
2023-05-14T08:59:26.010Z,75.54
2023-05-14T09:01:54.282Z,76.08
2023-05-14T09:04:23.046Z,75.73
2023-05-14T09:06:51.876Z,75.90
2023-05-14T09:09:18.814Z,75.16
2023-05-14T09:11:53.044Z,75.88
2023-05-14T09:14:20.281Z,75.59
2023-05-14T09:16:48.877Z,74.80
2023-05-14T09:19:18.837Z,74.23
2023-05-14T09:21:46.452Z,75.45
2023-05-14T09:24:21.440Z,75.18
2023-05-14T09:26:51.724Z,73.82
2023-05-14T09:29:18.522Z,74.85
2023-05-14T09:31:45.352Z,73.72
2023-05-14T09:34:12.041Z,75.66
2023-05-14T09:36:38.524Z,74.53
2023-05-14T09:39:05.059Z,75.35
2023-05-14T09:41:31.518Z,73.95
2023-05-14T09:43:57.984Z,73.48
2023-05-14T09:46:27.278Z,73.60
2023-05-14T09:48:55.955Z,72.52
2023-05-14T09:51:22.534Z,73.35
2023-05-14T09:53:52.436Z,73.91
2023-05-14T09:56:18.929Z,73.99
2023-05-14T09:58:45.342Z,70.92
2023-05-14T10:01:12.470Z,72.88
2023-05-14T10:03:39.509Z,72.46
2023-05-14T10:06:06.862Z,74.18
2023-05-14T10:08:35.400Z,72.42
2023-05-14T10:11:06.483Z,69.73
2023-05-14T10:13:40.622Z,71.14
2023-05-14T10:16:31.906Z,70.87
2023-05-14T10:19:06.005Z,70.87
2023-05-14T10:21:35.960Z,70.10
2023-05-14T10:24:06.783Z,71.03
2023-05-14T10:26:38.949Z,69.92
2023-05-14T10:29:06.325Z,68.49
2023-05-14T10:31:55.945Z,68.45
2023-05-14T10:34:33.372Z,67.87
2023-05-14T10:37:02.153Z,67.56
2023-05-14T10:39:46.379Z,67.15
2023-05-14T10:42:22.051Z,65.96
2023-05-14T10:45:07.371Z,67.52
2023-05-14T10:47:36.338Z,66.08
2023-05-14T10:50:05.531Z,66.50
2023-05-14T10:52:32.292Z,65.37
2023-05-14T10:55:03.408Z,65.57
2023-05-14T10:57:31.972Z,64.15
2023-05-14T11:00:01.020Z,64.76
2023-05-14T11:02:33.179Z,66.59
2023-05-14T11:05:11.464Z,66.84
2023-05-14T11:07:42.524Z,67.06
2023-05-14T11:10:10.295Z,66.39
2023-05-14T11:12:39.163Z,64.09
2023-05-14T11:15:11.640Z,64.55
2023-05-14T11:17:40.310Z,62.17
2023-05-14T11:20:07.899Z,63.60
2023-05-14T11:22:35.502Z,65.75
2023-05-14T11:25:02.328Z,63.70
2023-05-14T11:27:29.990Z,62.49
2023-05-14T11:29:58.042Z,62.95
2023-05-14T11:32:24.673Z,63.80
2023-05-14T11:34:51.389Z,64.24
2023-05-14T11:37:17.872Z,62.58
2023-05-14T11:39:55.132Z,62.99
2023-05-14T11:42:22.573Z,63.28
2023-05-14T11:44:51.977Z,63.77
2023-05-14T11:47:20.624Z,62.60
2023-05-14T11:49:48.052Z,60.29
2023-05-14T11:52:16.263Z,61.55
2023-05-14T11:54:44.240Z,63.67
2023-05-14T11:57:14.396Z,61.61
2023-05-14T11:59:41.224Z,64.59
2023-05-14T12:02:17.392Z,62.71
2023-05-14T12:04:45.049Z,62.93
2023-05-14T12:07:15.078Z,62.89
2023-05-14T12:09:49.651Z,60.93
2023-05-14T12:12:19.719Z,62.41
2023-05-14T12:14:46.746Z,59.63
2023-05-14T12:17:22.858Z,62.43
2023-05-14T12:19:51.438Z,61.97
2023-05-14T12:22:22.161Z,61.05
2023-05-14T12:24:55.952Z,63.51
2023-05-14T12:27:27.214Z,63.65
2023-05-14T12:32:35.791Z,61.14
2023-05-14T12:35:02.350Z,63.32
2023-05-14T12:37:31.032Z,62.27
2023-05-14T12:39:57.718Z,66.03
2023-05-14T12:42:24.144Z,63.64
2023-05-14T12:44:50.648Z,65.04
2023-05-14T12:47:17.336Z,63.22
2023-05-14T12:49:43.777Z,63.15
2023-05-14T12:54:42.891Z,65.67
2023-05-14T12:57:09.474Z,63.26
2023-05-14T12:59:35.985Z,63.70
2023-05-14T13:02:02.426Z,62.75
2023-05-14T13:04:28.877Z,61.43
2023-05-14T13:06:55.477Z,65.77
2023-05-14T13:09:21.855Z,62.69
2023-05-14T13:11:48.225Z,65.09
2023-05-14T13:14:14.651Z,64.40
2023-05-14T13:16:41.112Z,64.38
2023-05-14T13:19:07.610Z,63.86
2023-05-14T13:21:34.043Z,63.39
2023-05-14T13:24:00.454Z,64.02
2023-05-14T13:26:28.217Z,64.29
2023-05-14T13:28:54.621Z,65.66
2023-05-14T13:31:21.107Z,62.42
2023-05-14T13:33:47.522Z,63.66
2023-05-14T13:36:14.698Z,62.95
2023-05-14T13:38:41.255Z,64.18
2023-05-14T13:41:08.491Z,63.11
2023-05-14T13:43:35.925Z,64.72
2023-05-14T13:46:04.336Z,65.33
2023-05-14T13:48:33.995Z,62.65
2023-05-14T13:51:00.459Z,65.42
2023-05-14T13:53:27.249Z,63.50
2023-05-14T13:55:58.274Z,65.07
2023-05-14T13:58:25.259Z,64.46
2023-05-14T14:00:52.611Z,64.49
2023-05-14T14:03:19.109Z,65.59
2023-05-14T14:05:45.617Z,65.14
2023-05-14T14:08:22.516Z,63.65
2023-05-14T14:10:50.627Z,64.83
2023-05-14T14:13:17.048Z,63.96
2023-05-14T14:15:43.760Z,63.58
2023-05-14T14:18:10.241Z,64.79
2023-05-14T14:20:36.669Z,63.58
2023-05-14T14:23:03.519Z,62.66
2023-05-14T14:25:29.889Z,62.86
2023-05-14T14:27:56.642Z,65.09
2023-05-14T14:30:22.993Z,64.78
2023-05-14T14:32:49.825Z,65.39
2023-05-14T14:35:17.654Z,64.50
2023-05-14T14:37:48.498Z,63.90
2023-05-14T14:40:16.194Z,65.50
2023-05-14T14:42:43.281Z,64.35
2023-05-14T14:45:10.362Z,63.32
2023-05-14T14:47:36.926Z,62.86
2023-05-14T14:50:03.522Z,61.01
2023-05-14T14:52:30.223Z,58.74
2023-05-14T14:54:56.954Z,59.13
2023-05-14T14:57:23.441Z,60.86
2023-05-14T14:59:49.859Z,60.85
2023-05-14T15:02:16.592Z,61.19
2023-05-14T15:04:43.173Z,61.71
2023-05-14T15:07:09.678Z,61.73
2023-05-14T15:09:36.135Z,60.18
2023-05-14T15:12:02.601Z,63.47
2023-05-14T15:14:29.036Z,63.92
2023-05-14T15:16:55.726Z,61.67
2023-05-14T15:19:22.179Z,62.61
2023-05-14T15:21:48.598Z,61.94
2023-05-14T15:24:15.003Z,61.52
2023-05-14T15:26:41.927Z,61.34
2023-05-14T15:29:08.356Z,63.05
2023-05-14T15:31:34.877Z,63.71
2023-05-14T15:34:01.471Z,62.98
2023-05-14T15:36:28.632Z,62.46
2023-05-14T15:38:55.066Z,63.13
2023-05-14T15:41:22.700Z,62.56
2023-05-14T15:43:49.091Z,62.77
2023-05-14T15:46:15.492Z,63.52
2023-05-14T15:48:42.096Z,61.87
2023-05-14T15:51:08.558Z,63.49
2023-05-14T15:53:34.950Z,64.47
2023-05-14T15:56:01.490Z,63.02
2023-05-14T15:58:27.922Z,64.11
2023-05-14T16:00:54.321Z,62.99
2023-05-14T16:03:20.816Z,60.30
2023-05-14T16:05:48.447Z,61.62
2023-05-14T16:08:14.916Z,63.64
2023-05-14T16:10:41.364Z,63.16
2023-05-14T16:13:07.802Z,63.82
2023-05-14T16:15:34.334Z,64.48
2023-05-14T16:18:00.912Z,64.19
2023-05-14T16:20:27.333Z,64.99
2023-05-14T16:22:53.692Z,64.96
2023-05-14T16:25:20.243Z,65.86
2023-05-14T16:27:46.752Z,65.72
2023-05-14T16:30:13.387Z,66.36
2023-05-14T16:32:42.021Z,67.66
2023-05-14T16:35:09.924Z,67.51
2023-05-14T16:37:36.353Z,67.90
2023-05-14T16:40:02.996Z,69.20
2023-05-14T16:42:29.428Z,67.42
2023-05-14T16:44:55.831Z,67.32
2023-05-14T16:47:22.181Z,68.52
2023-05-14T16:49:48.672Z,65.72
2023-05-14T16:52:15.312Z,65.56
2023-05-14T16:54:41.778Z,64.22
2023-05-14T16:57:08.218Z,65.50
2023-05-14T16:59:34.650Z,65.62
2023-05-14T17:02:01.243Z,66.60
2023-05-14T17:04:27.854Z,67.93
2023-05-14T17:06:55.140Z,66.69
2023-05-14T17:09:21.607Z,67.81
2023-05-14T17:11:48.028Z,67.24
2023-05-14T17:14:14.846Z,68.39
2023-05-14T17:16:42.263Z,70.57
2023-05-14T17:19:08.943Z,71.99
2023-05-14T17:21:35.518Z,71.83
2023-05-14T17:24:01.957Z,71.85
2023-05-14T17:26:28.353Z,73.15
2023-05-14T17:28:54.715Z,73.02
2023-05-14T17:31:22.233Z,74.43
2023-05-14T17:33:49.382Z,73.62
2023-05-14T17:36:15.885Z,75.10
2023-05-14T17:38:42.334Z,75.11
2023-05-14T17:41:09.650Z,74.04
2023-05-14T17:43:36.190Z,74.20
2023-05-14T17:46:03.444Z,74.26
2023-05-14T17:48:29.979Z,74.38
2023-05-14T17:50:56.391Z,74.44
2023-05-14T17:53:22.737Z,75.26
2023-05-14T17:55:50.068Z,75.11
2023-05-14T17:58:16.706Z,75.17
2023-05-14T18:00:43.622Z,74.89
2023-05-14T18:03:10.640Z,74.54
2023-05-14T18:05:37.108Z,75.82
2023-05-14T18:08:03.517Z,76.30
2023-05-14T18:10:30.062Z,76.69
2023-05-14T18:12:56.663Z,79.05
2023-05-14T18:15:25.741Z,78.78
2023-05-14T18:17:52.672Z,78.34
2023-05-14T18:20:19.524Z,78.77
2023-05-14T18:22:46.202Z,78.66
2023-05-14T18:25:13.527Z,80.13
2023-05-14T18:27:44.292Z,80.07
2023-05-14T18:30:15.274Z,80.04
2023-05-14T18:32:43.977Z,80.23
2023-05-14T18:35:11.540Z,80.55
2023-05-14T18:37:38.013Z,80.39
2023-05-14T18:40:05.168Z,81.64
2023-05-14T18:42:31.633Z,79.97
2023-05-14T18:44:58.054Z,80.23
2023-05-14T18:47:24.791Z,80.81
2023-05-14T18:49:55.040Z,81.37
2023-05-14T18:52:22.623Z,80.37
2023-05-14T18:54:49.084Z,81.37
2023-05-14T18:57:15.531Z,80.94
2023-05-14T18:59:41.944Z,81.91
2023-05-14T19:02:08.370Z,80.88
2023-05-14T19:04:44.255Z,79.82
2023-05-14T19:07:17.366Z,80.23
2023-05-14T19:09:43.771Z,79.54
2023-05-14T19:12:10.202Z,79.84
2023-05-14T19:14:36.741Z,80.45
2023-05-14T19:17:03.438Z,81.69
2023-05-14T19:19:29.919Z,81.58
2023-05-14T19:21:56.530Z,82.89
2023-05-14T19:24:22.892Z,83.86
2023-05-14T19:26:49.339Z,84.26
2023-05-14T19:29:15.745Z,84.23
2023-05-14T19:31:42.166Z,83.93
2023-05-14T19:34:08.611Z,85.07
2023-05-14T19:36:35.151Z,85.25
2023-05-14T19:39:01.813Z,83.39
2023-05-14T19:41:28.391Z,82.04
2023-05-14T19:43:54.787Z,82.49
2023-05-14T19:46:21.258Z,81.83
2023-05-14T19:48:48.435Z,82.64
2023-05-14T19:51:14.826Z,82.29
2023-05-14T19:53:41.244Z,84.34
2023-05-14T19:56:07.784Z,84.04
2023-05-14T19:58:34.339Z,84.96
2023-05-14T20:01:00.785Z,83.95
2023-05-14T20:03:27.410Z,85.30
2023-05-14T20:05:55.239Z,85.28
2023-05-14T20:08:22.064Z,85.65
2023-05-14T20:10:48.724Z,86.31
2023-05-14T20:13:15.540Z,86.98
2023-05-14T20:15:42.834Z,86.84
2023-05-14T20:18:09.595Z,86.87
2023-05-14T20:20:36.583Z,86.34
2023-05-14T20:23:03.545Z,86.71
2023-05-14T20:25:30.146Z,86.94
2023-05-14T20:27:56.764Z,87.49
2023-05-14T20:30:23.305Z,87.29
2023-05-14T20:32:49.920Z,87.99
2023-05-14T20:35:16.430Z,87.63
2023-05-14T20:37:42.839Z,88.12
2023-05-14T20:40:12.824Z,87.13
2023-05-14T20:42:39.338Z,87.10
2023-05-14T20:45:06.892Z,85.91
2023-05-14T20:47:34.179Z,86.71
2023-05-14T20:50:01.020Z,86.48
2023-05-14T20:52:27.585Z,87.40
2023-05-14T20:54:54.022Z,86.52
2023-05-14T20:57:20.576Z,87.97
2023-05-14T21:02:14.021Z,87.11
2023-05-14T21:04:41.029Z,87.77
2023-05-14T21:07:07.689Z,86.55
2023-05-14T21:09:34.180Z,87.34
2023-05-14T21:12:00.646Z,87.47
2023-05-14T21:14:27.087Z,87.56
2023-05-14T21:16:53.664Z,87.09
2023-05-14T21:19:20.389Z,86.53
2023-05-14T21:21:47.335Z,88.18
2023-05-14T21:24:13.827Z,86.90
2023-05-14T21:26:41.359Z,88.33
2023-05-14T21:29:07.826Z,87.68
2023-05-14T21:31:34.271Z,89.35
2023-05-14T21:34:00.788Z,89.16
2023-05-14T21:36:27.248Z,89.06
2023-05-14T21:38:53.815Z,89.59
2023-05-14T21:41:21.033Z,89.56
2023-05-14T21:43:47.500Z,89.78
2023-05-14T21:46:13.905Z,89.99
2023-05-14T21:48:40.439Z,90.88
2023-05-14T21:51:06.988Z,91.00
2023-05-14T21:53:34.621Z,90.77
2023-05-14T21:56:01.014Z,91.32
2023-05-14T21:58:27.802Z,90.88
2023-05-14T22:00:54.205Z,91.54
2023-05-14T22:03:20.834Z,90.80
2023-05-14T22:05:47.745Z,91.99
2023-05-14T22:08:14.108Z,92.01
2023-05-14T22:10:40.799Z,92.41
2023-05-14T22:13:07.150Z,92.98
2023-05-14T22:15:34.384Z,91.63
2023-05-14T22:18:00.900Z,92.26
2023-05-14T22:20:27.427Z,91.36
2023-05-14T22:22:53.922Z,90.77
2023-05-14T22:25:20.436Z,91.94
2023-05-14T22:27:46.882Z,93.32
2023-05-14T22:30:13.414Z,91.82
2023-05-14T22:32:39.945Z,91.31
2023-05-14T22:35:06.652Z,92.30
2023-05-14T22:37:33.054Z,92.42
2023-05-14T22:39:59.530Z,92.84
2023-05-14T22:42:27.151Z,93.44
2023-05-14T22:44:53.667Z,93.55
2023-05-14T22:47:20.202Z,92.30
2023-05-14T22:49:46.844Z,92.01
2023-05-14T22:52:13.311Z,92.80
2023-05-14T22:54:39.744Z,92.69
2023-05-14T22:57:06.615Z,93.72
2023-05-14T22:59:33.276Z,94.61
2023-05-14T23:01:59.783Z,93.90
2023-05-14T23:04:26.423Z,92.96
2023-05-14T23:06:52.895Z,94.88
2023-05-14T23:09:19.254Z,95.03
2023-05-14T23:11:46.181Z,94.12
2023-05-14T23:14:12.577Z,94.86
2023-05-14T23:16:39.479Z,95.25
2023-05-14T23:19:06.081Z,93.80
2023-05-14T23:21:32.975Z,94.10
2023-05-14T23:23:59.387Z,95.15
2023-05-14T23:26:25.879Z,94.16
2023-05-14T23:28:52.352Z,94.49
2023-05-14T23:31:18.785Z,96.06
2023-05-14T23:33:46.293Z,95.29
2023-05-14T23:36:12.872Z,94.66
2023-05-14T23:38:40.099Z,95.08
2023-05-14T23:41:06.467Z,94.70
2023-05-14T23:43:33.693Z,95.72
2023-05-14T23:46:00.948Z,94.83
2023-05-14T23:48:27.616Z,95.65
2023-05-14T23:50:53.979Z,94.79
2023-05-14T23:53:20.367Z,95.43
2023-05-14T23:55:46.904Z,95.85
2023-05-14T23:58:13.305Z,95.57
